createdAt,value
2022-11-15T00:04:17.402Z,54.50
2022-11-15T00:15:20.590Z,54.60
2022-11-15T00:18:13.291Z,54.70
2022-11-15T00:32:07.898Z,54.70
2022-11-15T00:45:56.771Z,54.90
2022-11-15T00:48:42.171Z,54.90
2022-11-15T00:51:27.642Z,54.90
2022-11-15T00:56:58.887Z,54.90
2022-11-15T01:02:30.103Z,55.00
2022-11-15T01:05:15.499Z,55.10
2022-11-15T01:13:35.156Z,55.10
2022-11-15T01:32:56.340Z,55.20
2022-11-15T01:35:41.698Z,55.30
2022-11-15T01:38:27.193Z,55.30
2022-11-15T01:41:21.481Z,55.40
2022-11-15T01:44:31.995Z,55.40
2022-11-15T01:47:33.033Z,55.50
2022-11-15T01:50:23.044Z,55.50
2022-11-15T01:58:42.043Z,55.80
2022-11-15T02:04:17.794Z,55.60
2022-11-15T02:07:08.089Z,55.80
2022-11-15T02:12:40.986Z,55.90
2022-11-15T02:15:33.591Z,55.60
2022-11-15T02:18:32.052Z,55.60
2022-11-15T02:21:23.288Z,55.60
2022-11-15T02:24:50.309Z,55.60
2022-11-15T02:28:11.291Z,55.60
2022-11-15T02:31:14.565Z,55.60
2022-11-15T02:34:24.058Z,55.60
2022-11-15T02:37:17.449Z,55.70
2022-11-15T02:40:17.911Z,55.80
2022-11-15T02:43:37.001Z,55.80
2022-11-15T02:47:02.050Z,55.80
2022-11-15T02:49:51.099Z,55.80
2022-11-15T02:52:36.594Z,55.80
2022-11-15T03:01:36.890Z,55.70
2022-11-15T03:04:34.687Z,55.70
2022-11-15T03:07:33.806Z,55.70
2022-11-15T03:10:27.364Z,55.70
2022-11-15T03:13:35.369Z,55.70
2022-11-15T03:16:59.434Z,55.70
2022-11-15T03:22:43.386Z,55.70
2022-11-15T03:25:30.172Z,55.70
2022-11-15T03:28:28.995Z,55.70
2022-11-15T03:31:35.139Z,55.70
2022-11-15T03:34:45.069Z,55.60
2022-11-15T03:38:05.762Z,55.60
2022-11-15T03:40:59.885Z,55.60
2022-11-15T03:44:07.659Z,55.60
2022-11-15T03:47:03.952Z,55.60
2022-11-15T03:49:58.050Z,55.60
2022-11-15T03:55:29.478Z,55.60
2022-11-15T04:03:46.760Z,55.60
2022-11-15T04:09:18.149Z,55.50
2022-11-15T04:12:03.976Z,55.50
2022-11-15T04:17:55.931Z,55.50
2022-11-15T04:32:22.911Z,55.40
2022-11-15T04:35:08.643Z,55.40
2022-11-15T04:37:54.438Z,55.30
2022-11-15T04:40:39.773Z,55.30
2022-11-15T04:46:12.252Z,55.20
2022-11-15T04:54:30.626Z,55.10
2022-11-15T04:57:16.269Z,55.10
2022-11-15T05:00:03.009Z,55.10
2022-11-15T05:03:06.585Z,55.00
2022-11-15T05:05:52.129Z,55.00
2022-11-15T05:08:37.710Z,54.90
2022-11-15T05:11:23.919Z,54.90
2022-11-15T05:14:09.663Z,54.90
2022-11-15T05:19:41.063Z,54.80
2022-11-15T05:22:27.534Z,54.90
2022-11-15T05:25:13.127Z,54.90
2022-11-15T05:30:44.558Z,54.80
2022-11-15T05:33:31.181Z,54.80
2022-11-15T05:36:32.165Z,54.80
2022-11-15T05:42:15.046Z,54.70
2022-11-15T05:45:02.608Z,54.70
2022-11-15T05:47:50.390Z,54.70
2022-11-15T05:50:39.878Z,54.70
2022-11-15T05:53:26.653Z,54.60
2022-11-15T05:56:13.392Z,54.60
2022-11-15T05:58:59.906Z,54.60
2022-11-15T06:01:46.156Z,54.60
2022-11-15T06:04:31.737Z,54.60
2022-11-15T06:07:17.461Z,54.60
2022-11-15T06:10:02.851Z,54.50
2022-11-15T06:12:48.318Z,54.50
2022-11-15T06:15:37.332Z,54.50
2022-11-15T06:18:22.763Z,54.50
2022-11-15T06:23:54.357Z,54.50
2022-11-15T06:26:39.652Z,54.50
2022-11-15T06:29:25.218Z,54.40
2022-11-15T06:32:10.872Z,54.40
2022-11-15T06:34:56.462Z,54.40
2022-11-15T06:37:42.541Z,54.40
2022-11-15T06:43:14.060Z,54.40
2022-11-15T06:46:04.055Z,54.40
2022-11-15T06:48:52.061Z,54.30
2022-11-15T06:51:37.668Z,54.30
2022-11-15T06:57:10.394Z,54.30
2022-11-15T07:02:41.730Z,54.30
2022-11-15T07:08:13.330Z,54.30
2022-11-15T07:11:01.335Z,54.30
2022-11-15T07:13:46.606Z,54.30
2022-11-15T07:16:32.314Z,54.30
2022-11-15T07:19:17.794Z,54.20
2022-11-15T07:24:49.029Z,54.30
2022-11-15T07:27:34.984Z,54.30
2022-11-15T07:30:20.641Z,55.90
2022-11-15T07:35:51.913Z,54.30
2022-11-15T07:38:42.534Z,54.20
2022-11-15T07:41:28.510Z,54.30
2022-11-15T07:44:13.993Z,54.30
2022-11-15T07:46:59.371Z,54.30
2022-11-15T07:49:45.078Z,54.40
2022-11-15T07:52:30.314Z,55.50
2022-11-15T07:55:15.879Z,54.30
2022-11-15T07:58:03.306Z,54.30
2022-11-15T08:00:48.670Z,54.30
2022-11-15T08:03:34.813Z,55.40
2022-11-15T08:06:20.439Z,54.50
2022-11-15T08:09:05.784Z,54.90
2022-11-15T08:11:50.978Z,56.30
2022-11-15T08:14:37.674Z,55.40
2022-11-15T08:17:24.159Z,55.20
2022-11-15T08:20:10.046Z,54.90
2022-11-15T08:23:00.762Z,54.40
2022-11-15T08:25:45.926Z,55.30
2022-11-15T08:28:32.634Z,56.00
2022-11-15T08:31:19.492Z,56.80
2022-11-15T08:34:06.882Z,56.80
2022-11-15T08:36:52.187Z,57.70
2022-11-15T08:39:38.775Z,56.20
2022-11-15T08:42:24.292Z,58.90
2022-11-15T08:45:10.330Z,57.10
2022-11-15T08:47:56.352Z,56.90
2022-11-15T08:53:29.904Z,55.10
2022-11-15T08:56:16.353Z,55.80
2022-11-15T08:59:02.839Z,55.30
2022-11-15T09:01:49.621Z,55.10
2022-11-15T09:04:34.674Z,55.30
2022-11-15T09:07:21.250Z,54.70
2022-11-15T09:10:07.183Z,54.00
2022-11-15T09:12:52.514Z,54.80
2022-11-15T09:15:38.050Z,53.90
2022-11-15T09:21:10.716Z,53.90
2022-11-15T09:23:56.414Z,56.40
2022-11-15T09:29:28.224Z,53.90
2022-11-15T09:32:13.880Z,55.90
2022-11-15T09:34:59.246Z,56.20
2022-11-15T09:37:44.727Z,55.90
2022-11-15T09:40:32.314Z,54.60
2022-11-15T09:43:42.243Z,55.00
2022-11-15T09:46:49.050Z,54.60
2022-11-15T09:49:34.614Z,54.60
2022-11-15T09:52:17.728Z,54.80
2022-11-15T09:54:54.717Z,55.10
2022-11-15T09:57:45.463Z,54.60
2022-11-15T10:03:29.889Z,54.70
2022-11-15T10:06:00.933Z,54.50
2022-11-15T10:08:51.233Z,54.90
2022-11-15T10:11:40.935Z,54.00
2022-11-15T10:14:19.467Z,54.00
2022-11-15T10:16:49.210Z,54.70
2022-11-15T10:19:44.795Z,54.00
2022-11-15T10:22:29.548Z,54.50
2022-11-15T10:25:14.566Z,54.70
2022-11-15T10:27:43.461Z,54.60
2022-11-15T10:30:17.124Z,55.00
2022-11-15T10:32:46.999Z,54.70
2022-11-15T10:35:26.341Z,55.30
2022-11-15T10:37:57.542Z,54.70
2022-11-15T10:40:25.114Z,56.30
2022-11-15T10:43:16.483Z,55.00
2022-11-15T10:45:44.243Z,55.50
2022-11-15T10:48:13.727Z,54.90
2022-11-15T10:50:43.524Z,55.80
2022-11-15T10:53:34.318Z,54.70
2022-11-15T10:56:14.572Z,54.70
2022-11-15T10:58:44.904Z,54.10
2022-11-15T11:01:20.892Z,54.20
2022-11-15T11:04:03.920Z,54.70
2022-11-15T11:06:31.446Z,54.70
2022-11-15T11:09:04.505Z,56.00
2022-11-15T11:11:49.675Z,54.80
2022-11-15T11:14:22.939Z,55.10
2022-11-15T11:16:55.057Z,54.80
2022-11-15T11:19:32.587Z,55.00
2022-11-15T11:22:26.906Z,55.70
2022-11-15T11:25:22.222Z,54.70
2022-11-15T11:27:56.861Z,54.80
2022-11-15T11:30:57.491Z,56.60
2022-11-15T11:33:38.884Z,54.70
2022-11-15T11:36:12.604Z,55.00
2022-11-15T11:39:10.585Z,54.80
2022-11-15T11:41:58.568Z,54.20
2022-11-15T11:44:38.689Z,54.80
2022-11-15T11:47:21.455Z,54.20
2022-11-15T11:49:54.817Z,54.20
2022-11-15T11:52:39.968Z,54.20
2022-11-15T11:55:25.282Z,54.20
2022-11-15T11:58:23.066Z,54.80
2022-11-15T12:01:13.487Z,54.80
2022-11-15T12:03:51.018Z,54.80
2022-11-15T12:06:50.102Z,54.30
2022-11-15T12:09:34.932Z,54.80
2022-11-15T12:12:45.307Z,54.80
2022-11-15T12:15:21.025Z,54.30
2022-11-15T12:17:48.313Z,54.30
2022-11-15T12:20:24.168Z,55.00
2022-11-15T12:23:08.854Z,54.90
2022-11-15T12:25:58.922Z,54.90
2022-11-15T12:28:28.547Z,54.90
2022-11-15T12:31:02.572Z,54.40
2022-11-15T12:33:43.109Z,54.30
2022-11-15T12:36:34.946Z,54.30
2022-11-15T12:39:05.752Z,54.40
2022-11-15T12:42:05.234Z,55.00
2022-11-15T12:44:32.756Z,55.00
2022-11-15T12:46:59.499Z,55.10
2022-11-15T12:49:29.233Z,56.60
2022-11-15T12:52:06.939Z,56.20
2022-11-15T12:54:42.522Z,55.20
2022-11-15T12:57:09.309Z,55.20
2022-11-15T12:59:56.397Z,55.40
2022-11-15T13:02:38.414Z,54.70
2022-11-15T13:05:20.401Z,55.30
2022-11-15T13:10:30.882Z,54.70
2022-11-15T13:13:08.394Z,54.80
2022-11-15T13:15:42.858Z,54.70
2022-11-15T13:18:34.579Z,54.70
2022-11-15T13:21:22.998Z,55.40
2022-11-15T13:23:54.707Z,54.90
2022-11-15T13:26:23.351Z,54.80
2022-11-15T13:28:54.242Z,55.40
2022-11-15T13:31:42.737Z,55.80
2022-11-15T13:34:51.152Z,55.60
2022-11-15T13:37:21.539Z,55.50
2022-11-15T13:39:49.639Z,54.90
2022-11-15T13:42:21.037Z,55.60
2022-11-15T13:45:05.211Z,56.80
2022-11-15T13:47:33.160Z,55.60
2022-11-15T13:50:01.755Z,55.60
2022-11-15T13:52:32.684Z,56.80
2022-11-15T13:55:10.000Z,55.60
2022-11-15T13:57:58.538Z,55.60
2022-11-15T14:00:45.673Z,55.60
2022-11-15T14:03:28.589Z,56.60
2022-11-15T14:06:13.255Z,55.80
2022-11-15T14:09:00.237Z,56.80
2022-11-15T14:11:27.667Z,55.80
2022-11-15T14:14:14.898Z,55.10
2022-11-15T14:16:47.455Z,55.70
2022-11-15T14:19:35.805Z,56.40
2022-11-15T14:22:12.554Z,57.30
2022-11-15T14:24:39.478Z,55.70
2022-11-15T14:27:26.134Z,55.90
2022-11-15T14:29:53.381Z,55.80
2022-11-15T14:32:22.950Z,56.00
2022-11-15T14:34:55.082Z,57.10
2022-11-15T14:37:35.471Z,56.10
2022-11-15T14:40:06.559Z,55.80
2022-11-15T14:42:33.585Z,55.80
2022-11-15T14:45:01.366Z,56.10
2022-11-15T14:47:28.223Z,56.00
2022-11-15T14:49:55.058Z,57.10
2022-11-15T14:52:32.179Z,56.40
2022-11-15T14:55:00.568Z,56.10
2022-11-15T14:57:28.349Z,56.00
2022-11-15T14:59:55.266Z,57.40
2022-11-15T15:02:27.704Z,57.50
2022-11-15T15:09:50.517Z,55.40
2022-11-15T15:12:19.950Z,55.40
2022-11-15T15:14:48.244Z,55.40
2022-11-15T15:17:15.857Z,55.40
2022-11-15T15:19:43.004Z,55.50
2022-11-15T15:22:16.488Z,55.50
2022-11-15T15:24:47.320Z,57.50
2022-11-15T15:27:15.467Z,56.20
2022-11-15T15:29:42.172Z,56.30
2022-11-15T15:32:11.813Z,55.60
2022-11-15T15:34:38.594Z,55.60
2022-11-15T15:39:42.326Z,55.70
2022-11-15T15:42:09.090Z,55.70
2022-11-15T15:44:35.919Z,55.70
2022-11-15T15:47:02.727Z,57.00
2022-11-15T15:49:29.474Z,57.10
2022-11-15T15:51:56.310Z,58.40
2022-11-15T15:54:24.007Z,58.10
2022-11-15T15:56:55.933Z,56.90
2022-11-15T16:01:51.641Z,56.20
2022-11-15T16:04:18.460Z,56.30
2022-11-15T16:09:16.642Z,56.40
2022-11-15T16:11:46.831Z,57.60
2022-11-15T16:14:13.816Z,56.50
2022-11-15T16:16:40.748Z,56.50
2022-11-15T16:19:07.499Z,56.50
2022-11-15T16:21:34.364Z,56.60
2022-11-15T16:24:01.045Z,56.60
2022-11-15T16:26:30.629Z,56.60
2022-11-15T16:28:58.812Z,58.50
2022-11-15T16:31:25.587Z,58.50
2022-11-15T16:33:52.314Z,59.30
2022-11-15T16:36:27.122Z,58.60
2022-11-15T16:38:56.872Z,57.80
2022-11-15T16:41:23.629Z,59.30
2022-11-15T16:43:50.447Z,57.60
2022-11-15T16:46:24.955Z,59.40
2022-11-15T16:51:21.157Z,56.90
2022-11-15T16:53:49.140Z,57.60
2022-11-15T16:56:30.375Z,57.90
2022-11-15T16:58:59.026Z,59.20
2022-11-15T17:01:28.298Z,59.00
2022-11-15T17:03:55.862Z,57.90
2022-11-15T17:06:24.121Z,57.80
2022-11-15T17:08:50.960Z,58.90
2022-11-15T17:11:20.947Z,58.10
2022-11-15T17:13:49.371Z,57.90
2022-11-15T17:16:17.609Z,58.20
2022-11-15T17:18:47.589Z,58.80
2022-11-15T17:21:19.258Z,57.50
2022-11-15T17:23:46.579Z,57.60
2022-11-15T17:26:29.469Z,57.90
2022-11-15T17:29:01.436Z,57.70
2022-11-15T17:31:30.724Z,58.20
2022-11-15T17:33:57.531Z,57.90
2022-11-15T17:36:24.353Z,57.90
2022-11-15T17:38:58.097Z,58.10
2022-11-15T17:41:26.386Z,57.90
2022-11-15T17:43:53.301Z,57.90
2022-11-15T17:46:21.136Z,58.60
2022-11-15T17:48:48.806Z,59.50
2022-11-15T17:51:17.458Z,57.60
2022-11-15T17:53:49.169Z,59.00
2022-11-15T17:56:18.592Z,58.00
2022-11-15T17:58:56.601Z,58.50
2022-11-15T18:01:26.951Z,58.20
2022-11-15T18:03:54.607Z,57.30
2022-11-15T18:06:23.750Z,58.00
2022-11-15T18:08:52.076Z,58.00
2022-11-15T18:11:21.716Z,58.90
2022-11-15T18:13:52.500Z,58.00
2022-11-15T18:16:22.429Z,58.10
2022-11-15T18:18:49.410Z,57.90
2022-11-15T18:21:24.553Z,59.00
2022-11-15T18:23:59.658Z,58.10
2022-11-15T18:26:29.069Z,58.10
2022-11-15T18:29:01.934Z,58.20
2022-11-15T18:31:30.994Z,58.20
2022-11-15T18:34:00.036Z,59.80
2022-11-15T18:36:29.579Z,58.20
2022-11-15T18:38:58.296Z,59.00
2022-11-15T18:41:28.740Z,57.70
2022-11-15T18:43:59.735Z,57.60
2022-11-15T18:46:29.198Z,58.70
2022-11-15T18:48:58.111Z,58.40
2022-11-15T18:51:26.461Z,58.90
2022-11-15T18:53:55.095Z,58.40
2022-11-15T18:56:23.572Z,59.90
2022-11-15T18:58:52.177Z,60.40
2022-11-15T19:01:20.410Z,59.80
2022-11-15T19:03:49.543Z,59.20
2022-11-15T19:06:21.969Z,58.70
2022-11-15T19:08:50.165Z,58.50
2022-11-15T19:11:21.576Z,59.20
2022-11-15T19:13:52.425Z,59.50
2022-11-15T19:16:19.254Z,58.80
2022-11-15T19:18:45.965Z,58.40
2022-11-15T19:21:15.991Z,57.60
2022-11-15T19:23:43.380Z,58.40
2022-11-15T19:26:15.374Z,58.40
2022-11-15T19:28:43.953Z,58.50
2022-11-15T19:31:15.699Z,59.60
2022-11-15T19:33:44.033Z,58.20
2022-11-15T19:36:15.611Z,58.40
2022-11-15T19:38:42.595Z,58.00
2022-11-15T19:41:18.013Z,60.10
2022-11-15T19:43:47.914Z,58.70
2022-11-15T19:46:15.402Z,58.90
2022-11-15T19:48:42.412Z,58.30
2022-11-15T19:51:30.191Z,60.10
2022-11-15T19:54:01.234Z,59.10
2022-11-15T19:56:28.030Z,58.10
2022-11-15T19:58:56.228Z,57.50
2022-11-15T20:01:26.035Z,58.80
2022-11-15T20:03:55.326Z,58.10
2022-11-15T20:06:24.426Z,58.50
2022-11-15T20:08:51.388Z,58.50
2022-11-15T20:11:19.078Z,58.20
2022-11-15T20:13:45.922Z,57.50
2022-11-15T20:16:17.089Z,58.20
2022-11-15T20:18:44.131Z,59.30
2022-11-15T20:21:11.274Z,58.10
2022-11-15T20:23:38.938Z,58.50
2022-11-15T20:26:07.869Z,59.00
2022-11-15T20:28:37.985Z,58.00
2022-11-15T20:31:05.849Z,58.30
2022-11-15T20:33:32.750Z,58.10
2022-11-15T20:36:07.230Z,59.00
2022-11-15T20:38:34.719Z,58.10
2022-11-15T20:41:01.938Z,58.40
2022-11-15T20:43:28.955Z,58.30
2022-11-15T20:45:56.014Z,59.40
2022-11-15T20:48:22.935Z,57.90
2022-11-15T20:50:49.681Z,58.60
2022-11-15T20:53:19.027Z,58.60
2022-11-15T20:55:48.931Z,57.50
2022-11-15T20:58:16.684Z,59.50
2022-11-15T21:00:45.339Z,58.70
2022-11-15T21:03:13.593Z,57.50
2022-11-15T21:05:43.194Z,59.60
2022-11-15T21:08:12.910Z,59.80
2022-11-15T21:10:59.069Z,59.10
2022-11-15T21:13:26.649Z,58.50
2022-11-15T21:15:57.582Z,57.60
2022-11-15T21:18:25.843Z,58.30
2022-11-15T21:20:53.655Z,58.40
2022-11-15T21:23:20.905Z,58.60
2022-11-15T21:25:52.179Z,58.40
2022-11-15T21:28:19.226Z,58.40
2022-11-15T21:30:59.682Z,59.00
2022-11-15T21:33:27.637Z,58.30
2022-11-15T21:35:55.825Z,57.80
2022-11-15T21:38:24.041Z,58.40
2022-11-15T21:40:52.058Z,58.40
2022-11-15T21:43:20.926Z,58.50
2022-11-15T21:46:02.326Z,60.00
2022-11-15T21:48:31.767Z,60.60
2022-11-15T21:51:10.949Z,58.50
2022-11-15T21:53:37.682Z,58.90
2022-11-15T21:56:06.744Z,60.50
2022-11-15T21:58:33.858Z,58.70
2022-11-15T22:01:20.019Z,58.80
2022-11-15T22:03:46.871Z,59.10
2022-11-15T22:06:17.680Z,59.10
2022-11-15T22:08:46.029Z,59.20
2022-11-15T22:11:13.362Z,60.30
2022-11-15T22:13:41.476Z,58.60
2022-11-15T22:16:09.094Z,58.00
2022-11-15T22:18:36.778Z,60.50
2022-11-15T22:21:11.894Z,58.60
2022-11-15T22:23:39.266Z,58.60
2022-11-15T22:26:06.990Z,58.70
2022-11-15T22:28:34.539Z,58.60
2022-11-15T22:31:01.818Z,58.80
2022-11-15T22:33:30.742Z,59.10
2022-11-15T22:35:58.010Z,58.10
2022-11-15T22:38:25.965Z,58.90
2022-11-15T22:40:53.153Z,58.70
2022-11-15T22:43:21.864Z,58.90
2022-11-15T22:45:53.538Z,58.70
2022-11-15T22:48:22.771Z,58.80
2022-11-15T22:50:50.751Z,58.80
2022-11-15T22:53:18.349Z,58.10
2022-11-15T22:55:53.606Z,58.10
2022-11-15T22:58:21.631Z,58.80
2022-11-15T23:00:50.213Z,58.80
2022-11-15T23:03:17.874Z,58.80
2022-11-15T23:05:44.730Z,58.90
2022-11-15T23:08:12.250Z,59.00
2022-11-15T23:10:58.933Z,59.00
2022-11-15T23:13:27.885Z,58.90
2022-11-15T23:16:23.879Z,58.90
2022-11-15T23:18:58.820Z,58.90
2022-11-15T23:21:47.142Z,58.90
2022-11-15T23:24:14.905Z,58.30
2022-11-15T23:26:43.247Z,59.10
2022-11-15T23:29:12.316Z,58.90
2022-11-15T23:32:02.165Z,58.90
2022-11-15T23:34:31.038Z,58.90
2022-11-15T23:36:59.037Z,58.90
2022-11-15T23:39:26.194Z,59.00
2022-11-15T23:41:53.006Z,59.00
2022-11-15T23:44:19.791Z,59.10
2022-11-15T23:46:47.757Z,59.10
2022-11-15T23:49:14.683Z,59.20
2022-11-15T23:51:41.495Z,58.30
2022-11-15T23:54:08.570Z,59.10
2022-11-15T23:56:35.465Z,59.10
2022-11-15T23:59:02.329Z,59.00
